Time;durP1;ratioP1;P1;durP2;ratioP2;P2;SDS_P1;SDS_P2;PMS_P1;PMS_P2;Temp;Humidity;BMP_temperature;BMP_pressure;BME280_temperature;BME280_humidity;BME280_pressure;Samples;Min_cycle;Max_cycle;Signal;HPM_P1;HPM_P2
2022/01/20 00:02:20;;;;;;;;;;;3.80;99.90;;;;;;5061917;28;19909;-80
2022/01/20 00:04:51;;;;;;;;;;;3.90;99.90;;;;;;5061731;28;19944;-82
2022/01/20 00:07:33;;;;;;;;;;;3.80;99.90;;;;;;5061404;28;19960;-81
2022/01/20 00:26:29;;;;;;;;;;;3.90;99.90;;;;;;5039776;28;20392;-81
2022/01/20 00:28:59;;;;;;;;;;;3.80;99.90;;;;;;5040072;28;19980;-81
2022/01/20 00:31:43;;;;;;;;;;;3.80;99.90;;;;;;5040960;28;20001;-80
2022/01/20 00:34:16;;;;;;;;;;;3.80;99.90;;;;;;5043890;28;19925;-80
2022/01/20 00:39:30;;;;;;;;;;;3.90;99.90;;;;;;5051726;28;20061;-82
2022/01/20 00:41:56;;;;;;;;;;;3.90;99.90;;;;;;5043613;28;19925;-82
2022/01/20 00:44:23;;;;;;;;;;;3.90;99.90;;;;;;5040623;28;20308;-84
2022/01/20 00:46:50;;;;;;;;;;;3.90;99.90;;;;;;5043130;28;19925;-79
2022/01/20 00:49:16;;;;;;;;;;;4.00;99.90;;;;;;5057782;28;19925;-79
2022/01/20 00:51:43;;;;;;;;;;;4.10;99.90;;;;;;5058351;28;19909;-80
2022/01/20 00:54:09;;;;;;;;;;;3.90;99.90;;;;;;5050414;28;20454;-83
2022/01/20 00:56:39;;;;;;;;;;;3.80;99.90;;;;;;5044795;28;19925;-82
2022/01/20 00:59:06;;;;;;;;;;;4.00;99.90;;;;;;5048738;28;19947;-83
2022/01/20 01:01:35;;;;;;;;;;;3.80;99.90;;;;;;5055448;28;19925;-81
2022/01/20 01:04:02;;;;;;;;;;;4.20;99.90;;;;;;5059482;28;19925;-82
2022/01/20 01:06:41;;;;;;;;;;;4.10;99.90;;;;;;5056740;28;19967;-81
2022/01/20 01:09:08;;;;;;;;;;;4.00;99.90;;;;;;5056565;28;19968;-82
2022/01/20 01:11:34;;;;;;;;;;;4.10;99.90;;;;;;5059011;28;19957;-82
2022/01/20 01:14:04;;;;;;;;;;;4.10;99.90;;;;;;5058361;28;19932;-80
2022/01/20 01:16:42;;;;;;;;;;;4.10;99.90;;;;;;5055025;28;19964;-82
2022/01/20 01:22:04;;;;;;;;;;;3.80;99.90;;;;;;5044060;28;19963;-82
2022/01/20 01:24:31;;;;;;;;;;;3.90;99.90;;;;;;5043095;28;19925;-79
2022/01/20 01:26:57;;;;;;;;;;;3.80;99.90;;;;;;5042199;28;19925;-80
2022/01/20 01:29:43;;;;;;;;;;;3.70;99.90;;;;;;5040484;28;19960;-81
2022/01/20 01:32:13;;;;;;;;;;;3.80;99.90;;;;;;5040114;28;20256;-80
2022/01/20 01:34:42;;;;;;;;;;;3.70;99.90;;;;;;5039905;28;20404;-81
2022/01/20 01:37:34;;;;;;;;;;;3.80;99.90;;;;;;5039435;28;19936;-82
2022/01/20 01:39:55;;;;;;;;;;;3.80;99.90;;;;;;5039439;28;20345;-83
2022/01/20 01:42:27;;;;;;;;;;;3.80;99.90;;;;;;5039797;28;19933;-83
2022/01/20 01:44:57;;;;;;;;;;;3.10;99.90;;;;;;5040359;28;19925;-83
2022/01/20 01:47:23;;;;;;;;;;;3.70;99.90;;;;;;5040782;28;19925;-82
2022/01/20 01:49:50;;;;;;;;;;;3.70;99.90;;;;;;5043798;28;19932;-82
2022/01/20 01:52:16;;;;;;;;;;;3.20;99.90;;;;;;5042209;28;19926;-82
2022/01/20 01:54:43;;;;;;;;;;;3.50;99.90;;;;;;5040418;28;20277;-81
2022/01/20 01:57:09;;;;;;;;;;;3.60;99.90;;;;;;5039777;28;20392;-82
2022/01/20 01:59:36;;;;;;;;;;;3.70;99.90;;;;;;5039095;28;19925;-82
2022/01/20 02:02:04;;;;;;;;;;;3.50;99.90;;;;;;5039687;28;19925;-83
2022/01/20 02:04:30;;;;;;;;;;;3.50;99.90;;;;;;5040375;28;19987;-82
2022/01/20 02:07:28;;;;;;;;;;;3.50;99.90;;;;;;5039662;28;19925;-82
2022/01/20 02:18:36;;;;;;;;;;;3.40;99.90;;;;;;5039872;28;19928;-83
2022/01/20 02:21:04;;;;;;;;;;;3.40;99.90;;;;;;5039571;28;19975;-82
2022/01/20 02:23:30;;;;;;;;;;;3.30;99.90;;;;;;5039583;28;19951;-83
2022/01/20 02:25:57;;;;;;;;;;;3.30;99.90;;;;;;5040947;28;19956;-82
2022/01/20 02:28:23;;;;;;;;;;;3.30;99.90;;;;;;5040241;28;19955;-82
2022/01/20 02:30:50;;;;;;;;;;;3.00;99.90;;;;;;5039769;28;19925;-82
2022/01/20 02:33:17;;;;;;;;;;;3.20;99.90;;;;;;5040285;28;19956;-81
2022/01/20 02:35:49;;;;;;;;;;;2.50;99.90;;;;;;5039751;28;19925;-82
2022/01/20 02:38:22;;;;;;;;;;;3.20;99.90;;;;;;5039424;28;19925;-82
2022/01/20 02:46:17;;;;;;;;;;;3.00;99.90;;;;;;5046458;28;19971;-81
2022/01/20 02:48:44;;;;;;;;;;;3.00;99.90;;;;;;5050741;28;19936;-81
2022/01/20 02:51:10;;;;;;;;;;;3.00;99.90;;;;;;5053088;28;19925;-82
2022/01/20 02:53:38;;;;;;;;;;;2.90;99.90;;;;;;5046748;28;19926;-81
2022/01/20 02:56:04;;;;;;;;;;;3.00;99.90;;;;;;5043966;28;19948;-80
2022/01/20 02:58:31;;;;;;;;;;;3.00;99.90;;;;;;5040310;28;20044;-81
2022/01/20 03:00:57;;;;;;;;;;;3.00;99.90;;;;;;5042315;28;19964;-82
2022/01/20 03:03:24;;;;;;;;;;;2.90;99.90;;;;;;5042823;28;19925;-82
2022/01/20 03:05:50;;;;;;;;;;;2.80;99.90;;;;;;5054246;28;19925;-82
2022/01/20 03:08:17;;;;;;;;;;;2.80;99.90;;;;;;5054507;28;19925;-81
2022/01/20 03:10:46;;;;;;;;;;;2.50;99.90;;;;;;5048638;28;19932;-81
2022/01/20 03:13:12;;;;;;;;;;;3.20;99.90;;;;;;5045901;28;20295;-80
2022/01/20 03:15:40;;;;;;;;;;;2.80;10.70;;;;;;5044058;28;19925;-80
2022/01/20 03:18:06;;;;;;;;;;;2.80;1.00;;;;;;5040615;28;19925;-81
2022/01/20 03:20:33;;;;;;;;;;;2.70;9.90;;;;;;5038366;28;19925;-82
2022/01/20 03:22:59;;;;;;;;;;;2.70;33.20;;;;;;5037324;28;19925;-81
2022/01/20 03:25:26;;;;;;;;;;;2.70;90.50;;;;;;5039963;28;19929;-82
2022/01/20 03:27:54;;;;;;;;;;;2.70;99.90;;;;;;5041732;28;19925;-82
2022/01/20 03:30:21;;;;;;;;;;;2.70;99.90;;;;;;5046819;28;19932;-82
2022/01/20 03:32:50;;;;;;;;;;;2.80;93.40;;;;;;5053709;28;19932;-83
2022/01/20 03:35:16;;;;;;;;;;;2.80;88.90;;;;;;5058605;28;19931;-83
2022/01/20 03:37:43;;;;;;;;;;;2.90;47.70;;;;;;5061303;28;19917;-80
2022/01/20 03:40:10;;;;;;;;;;;3.00;21.60;;;;;;5062242;28;19916;-79
2022/01/20 03:42:37;;;;;;;;;;;3.00;29.90;;;;;;5062337;28;19909;-81
2022/01/20 03:45:05;;;;;;;;;;;3.00;41.70;;;;;;5062095;28;19909;-79
2022/01/20 03:47:32;;;;;;;;;;;3.00;33.60;;;;;;5062325;28;19914;-80
2022/01/20 03:50:09;;;;;;;;;;;2.90;49.40;;;;;;5062128;28;19921;-81
2022/01/20 03:52:35;;;;;;;;;;;2.40;34.20;;;;;;5050830;28;19935;-81
2022/01/20 03:55:02;;;;;;;;;;;3.10;20.80;;;;;;5049967;28;19933;-80
2022/01/20 03:57:28;;;;;;;;;;;2.90;23.70;;;;;;5043425;28;19929;-80
2022/01/20 03:59:56;;;;;;;;;;;2.90;25.40;;;;;;5043118;28;19936;-81
2022/01/20 04:02:24;;;;;;;;;;;3.00;1.00;;;;;;5044507;28;19933;-83
2022/01/20 04:04:53;;;;;;;;;;;3.00;12.90;;;;;;5046368;28;19925;-83
2022/01/20 04:07:19;;;;;;;;;;;2.50;1.00;;;;;;5046495;28;19948;-81
2022/01/20 04:09:46;;;;;;;;;;;3.10;1.00;;;;;;5043297;28;19979;-81
2022/01/20 04:12:12;;;;;;;;;;;3.10;1.00;;;;;;5049537;28;19975;-80
2022/01/20 04:14:46;;;;;;;;;;;3.10;1.00;;;;;;5045647;28;19925;-83
2022/01/20 04:17:18;;;;;;;;;;;3.20;1.00;;;;;;5050124;28;19960;-82
2022/01/20 04:19:47;;;;;;;;;;;3.20;1.00;;;;;;5049734;28;19925;-79
2022/01/20 04:22:13;;;;;;;;;;;3.20;1.00;;;;;;5060119;28;19925;-80
2022/01/20 04:24:40;;;;;;;;;;;3.20;1.00;;;;;;5053371;28;19925;-82
2022/01/20 04:27:07;;;;;;;;;;;3.30;1.00;;;;;;5054627;28;19917;-82
2022/01/20 04:29:34;;;;;;;;;;;3.30;1.00;;;;;;5058489;28;19936;-82
2022/01/20 04:32:00;;;;;;;;;;;3.30;1.00;;;;;;5058683;28;19932;-82
2022/01/20 04:34:27;;;;;;;;;;;3.20;45.60;;;;;;5051633;28;19932;-82
2022/01/20 04:36:55;;;;;;;;;;;2.50;99.90;;;;;;5048160;28;19925;-82
2022/01/20 04:39:26;;;;;;;;;;;1.70;99.90;;;;;;5043390;28;19991;-81
2022/01/20 04:41:53;;;;;;;;;;;1.10;99.90;;;;;;5042763;28;19925;-82
2022/01/20 04:44:32;;;;;;;;;;;0.90;99.90;;;;;;5041794;28;20012;-83
2022/01/20 04:47:07;;;;;;;;;;;0.80;99.90;;;;;;5042424;28;20379;-82
2022/01/20 04:57:48;;;;;;;;;;;0.70;99.90;;;;;;5040505;28;20406;-82
2022/01/20 05:00:14;;;;;;;;;;;0.60;99.90;;;;;;5040874;28;19968;-82
2022/01/20 05:02:41;;;;;;;;;;;0.70;99.90;;;;;;5041277;28;20419;-82
2022/01/20 05:05:08;;;;;;;;;;;0.70;99.90;;;;;;5041250;28;20450;-82
2022/01/20 05:07:36;;;;;;;;;;;0.70;99.90;;;;;;5040774;28;19957;-83
2022/01/20 05:10:06;;;;;;;;;;;1.00;99.90;;;;;;5040927;28;20358;-82
2022/01/20 05:12:49;;;;;;;;;;;0.90;99.90;;;;;;5042828;28;19931;-81
2022/01/20 05:15:15;;;;;;;;;;;1.00;99.90;;;;;;5046472;28;19925;-80
2022/01/20 05:17:42;;;;;;;;;;;1.00;99.90;;;;;;5046650;28;19929;-82
2022/01/20 05:20:09;;;;;;;;;;;1.20;99.90;;;;;;5040569;28;19936;-82
2022/01/20 05:22:37;;;;;;;;;;;1.30;99.90;;;;;;5054200;22;19956;-77
2022/01/20 05:25:04;;;;;;;;;;;0.60;99.90;;;;;;5035886;28;19964;-78
2022/01/20 05:27:31;;;;;;;;;;;1.30;99.90;;;;;;5037457;28;20368;-80
2022/01/20 05:29:57;;;;;;;;;;;1.40;99.90;;;;;;5036965;28;20292;-78
2022/01/20 05:32:23;;;;;;;;;;;1.30;99.90;;;;;;5038530;28;19925;-78
2022/01/20 05:34:50;;;;;;;;;;;1.30;99.90;;;;;;5037105;28;20067;-78
2022/01/20 05:37:17;;;;;;;;;;;1.40;99.90;;;;;;5036798;28;19989;-78
2022/01/20 05:39:44;;;;;;;;;;;1.50;99.90;;;;;;5035951;28;19964;-78
2022/01/20 05:42:11;;;;;;;;;;;1.50;99.90;;;;;;5044559;28;19936;-77
2022/01/20 05:44:37;;;;;;;;;;;1.50;99.90;;;;;;5052489;28;19932;-77
2022/01/20 05:47:09;;;;;;;;;;;1.60;99.90;;;;;;5051332;28;19913;-78
2022/01/20 05:49:35;;;;;;;;;;;1.60;99.90;;;;;;5056435;28;20355;-77
2022/01/20 05:52:02;;;;;;;;;;;1.70;99.90;;;;;;5055933;28;19925;-78
2022/01/20 05:54:28;;;;;;;;;;;1.60;99.90;;;;;;5056683;28;19997;-77
2022/01/20 05:56:56;;;;;;;;;;;1.60;99.90;;;;;;5040417;28;19926;-79
2022/01/20 05:59:25;;;;;;;;;;;1.60;99.90;;;;;;5036356;28;19983;-77
2022/01/20 06:01:56;;;;;;;;;;;1.70;99.90;;;;;;5035202;28;20419;-78
2022/01/20 06:04:22;;;;;;;;;;;1.80;99.90;;;;;;5035633;28;19925;-78
2022/01/20 06:06:49;;;;;;;;;;;1.90;99.90;;;;;;5037156;28;20288;-78
2022/01/20 06:09:15;;;;;;;;;;;1.80;99.90;;;;;;5036130;28;19925;-77
2022/01/20 06:11:42;;;;;;;;;;;1.90;99.90;;;;;;5036045;28;20099;-77
2022/01/20 06:14:09;;;;;;;;;;;2.00;99.90;;;;;;5035853;28;20388;-78
2022/01/20 06:16:37;;;;;;;;;;;2.10;99.90;;;;;;5037169;28;19925;-78
2022/01/20 06:19:03;;;;;;;;;;;2.00;66.70;;;;;;5036585;28;19968;-79
2022/01/20 06:21:30;;;;;;;;;;;2.00;99.90;;;;;;5036720;28;20333;-79
2022/01/20 06:23:56;;;;;;;;;;;2.10;99.90;;;;;;5036743;28;19972;-78
2022/01/20 06:26:23;;;;;;;;;;;2.00;1.00;;;;;;5038070;28;20016;-80
2022/01/20 06:28:49;;;;;;;;;;;1.90;1.00;;;;;;5037513;28;20442;-79
2022/01/20 06:31:17;;;;;;;;;;;2.00;1.00;;;;;;5036591;28;19968;-79
2022/01/20 06:33:44;;;;;;;;;;;2.00;1.00;;;;;;5040588;28;19968;-79
2022/01/20 06:36:10;;;;;;;;;;;1.80;99.90;;;;;;5039397;28;20414;-78
2022/01/20 06:38:37;;;;;;;;;;;1.80;1.00;;;;;;5046284;28;19925;-79
2022/01/20 06:41:03;;;;;;;;;;;1.60;1.00;;;;;;5053510;28;19936;-78
2022/01/20 06:43:29;;;;;;;;;;;1.60;99.90;;;;;;5052607;28;19925;-78
2022/01/20 06:45:56;;;;;;;;;;;1.50;99.90;;;;;;5038328;28;19925;-78
2022/01/20 06:48:24;;;;;;;;;;;1.40;99.90;;;;;;5036940;28;20347;-78
2022/01/20 06:50:50;;;;;;;;;;;1.40;1.00;;;;;;5037348;28;19991;-78
2022/01/20 06:53:17;;;;;;;;;;;1.50;99.90;;;;;;5036910;28;19991;-77
2022/01/20 06:55:43;;;;;;;;;;;1.20;99.90;;;;;;5036856;28;20458;-78
2022/01/20 06:58:09;;;;;;;;;;;1.40;13.30;;;;;;5039544;28;19963;-78
2022/01/20 07:00:36;;;;;;;;;;;1.30;1.00;;;;;;5053045;28;19913;-78
2022/01/20 07:03:02;;;;;;;;;;;1.40;99.90;;;;;;5048498;28;20241;-79
2022/01/20 07:05:30;;;;;;;;;;;1.40;51.70;;;;;;5036720;28;19975;-79
2022/01/20 07:07:57;;;;;;;;;;;1.30;1.00;;;;;;5037291;28;19964;-79
2022/01/20 07:10:23;;;;;;;;;;;1.20;1.00;;;;;;5036316;28;20040;-78
2022/01/20 07:12:50;;;;;;;;;;;1.30;99.90;;;;;;5037178;28;19967;-79
2022/01/20 07:15:17;;;;;;;;;;;1.70;1.00;;;;;;5046180;28;19925;-78
2022/01/20 07:17:44;;;;;;;;;;;1.30;1.00;;;;;;5050960;28;19988;-77
2022/01/20 07:20:11;;;;;;;;;;;1.40;99.90;;;;;;5049699;28;19929;-78
2022/01/20 07:22:39;;;;;;;;;;;1.40;99.90;;;;;;5051051;28;19975;-78
2022/01/20 07:25:05;;;;;;;;;;;1.40;99.90;;;;;;5047995;28;19932;-79
2022/01/20 07:27:32;;;;;;;;;;;1.40;99.90;;;;;;5037031;28;20404;-80
2022/01/20 07:29:58;;;;;;;;;;;1.40;99.90;;;;;;5037426;28;19969;-79
2022/01/20 07:32:25;;;;;;;;;;;1.40;1.00;;;;;;5037548;28;19952;-79
2022/01/20 07:34:51;;;;;;;;;;;1.50;1.00;;;;;;5037190;28;19979;-80
2022/01/20 07:37:18;;;;;;;;;;;1.50;99.90;;;;;;5036601;28;19925;-79
2022/01/20 07:39:45;;;;;;;;;;;1.40;1.00;;;;;;5036659;28;19981;-79
2022/01/20 07:42:12;;;;;;;;;;;1.30;99.90;;;;;;5035780;28;19925;-79
2022/01/20 07:44:38;;;;;;;;;;;1.30;99.90;;;;;;5034819;28;20019;-79
2022/01/20 07:47:05;;;;;;;;;;;1.20;1.00;;;;;;5035787;28;20241;-79
2022/01/20 07:49:31;;;;;;;;;;;1.20;99.90;;;;;;5035780;28;19984;-79
2022/01/20 07:51:58;;;;;;;;;;;1.10;1.00;;;;;;5036673;28;19964;-79
2022/01/20 07:54:24;;;;;;;;;;;1.10;1.00;;;;;;5036857;28;19988;-79
2022/01/20 07:56:53;;;;;;;;;;;1.10;99.90;;;;;;5037045;28;20351;-79
2022/01/20 07:59:19;;;;;;;;;;;1.10;1.00;;;;;;5035377;28;20392;-79
2022/01/20 08:01:45;;;;;;;;;;;1.20;1.00;;;;;;5035552;28;19992;-80
2022/01/20 08:04:12;;;;;;;;;;;1.20;1.00;;;;;;5035042;28;20345;-79
2022/01/20 08:06:39;;;;;;;;;;;1.20;1.00;;;;;;5035659;28;19925;-78
2022/01/20 08:09:06;;;;;;;;;;;1.30;99.90;;;;;;5046517;28;19931;-78
2022/01/20 08:11:32;;;;;;;;;;;1.30;99.90;;;;;;5048715;28;19920;-78
2022/01/20 08:14:00;;;;;;;;;;;1.30;99.90;;;;;;5044606;28;19971;-78
2022/01/20 08:16:27;;;;;;;;;;;1.20;95.70;;;;;;5039276;28;19972;-79
2022/01/20 08:18:54;;;;;;;;;;;1.40;1.00;;;;;;5041010;28;19975;-79
2022/01/20 08:21:20;;;;;;;;;;;1.40;99.90;;;;;;5040530;28;19999;-79
2022/01/20 08:23:47;;;;;;;;;;;1.50;25.40;;;;;;5038807;28;20296;-79
2022/01/20 08:26:13;;;;;;;;;;;1.60;1.00;;;;;;5040097;28;19925;-79
2022/01/20 08:28:40;;;;;;;;;;;1.70;1.00;;;;;;5040428;28;19960;-79
2022/01/20 08:31:07;;;;;;;;;;;1.70;1.00;;;;;;5039806;28;19960;-79
2022/01/20 08:33:34;;;;;;;;;;;1.70;1.00;;;;;;5040481;28;19976;-78
2022/01/20 08:36:00;;;;;;;;;;;1.70;1.00;;;;;;5039758;28;19925;-78
2022/01/20 08:38:27;;;;;;;;;;;1.70;1.00;;;;;;5038202;28;19925;-79
2022/01/20 08:40:53;;;;;;;;;;;1.70;1.00;;;;;;5038955;28;20395;-78
2022/01/20 08:43:20;;;;;;;;;;;1.70;99.90;;;;;;5039312;28;20387;-78
2022/01/20 08:45:47;;;;;;;;;;;1.70;1.00;;;;;;5040279;28;19925;-77
2022/01/20 08:48:15;;;;;;;;;;;1.60;1.00;;;;;;5045418;28;19952;-78
2022/01/20 08:50:42;;;;;;;;;;;1.70;1.00;;;;;;5045455;28;19964;-79
2022/01/20 08:53:09;;;;;;;;;;;1.70;99.90;;;;;;5045265;28;19925;-78
2022/01/20 08:55:36;;;;;;;;;;;1.70;99.90;;;;;;5045273;28;19933;-78
2022/01/20 08:58:03;;;;;;;;;;;1.80;1.00;;;;;;5042096;28;19925;-78
2022/01/20 09:00:31;;;;;;;;;;;1.80;99.90;;;;;;5039403;28;19960;-79
2022/01/20 09:02:58;;;;;;;;;;;1.80;1.00;;;;;;5039119;28;19973;-79
2022/01/20 09:05:26;;;;;;;;;;;1.90;99.90;;;;;;5042536;28;19936;-78
2022/01/20 09:07:53;;;;;;;;;;;1.90;99.90;;;;;;5041142;28;19932;-79
2022/01/20 09:10:20;;;;;;;;;;;2.00;99.90;;;;;;5043912;28;19925;-79
2022/01/20 09:15:32;;;;;;;;;;;2.20;1.00;;;;;;5055968;28;19931;-79
2022/01/20 09:18:00;;;;;;;;;;;2.30;99.90;;;;;;5043396;28;19925;-79
2022/01/20 09:20:28;;;;;;;;;;;2.40;99.90;;;;;;5041339;28;19925;-77
2022/01/20 09:22:55;;;;;;;;;;;2.50;99.90;;;;;;5036362;28;19975;-78
2022/01/20 09:25:22;;;;;;;;;;;2.40;1.00;;;;;;5038088;28;19936;-78
2022/01/20 09:27:50;;;;;;;;;;;2.40;1.00;;;;;;5038425;28;19968;-77
2022/01/20 09:30:19;;;;;;;;;;;2.30;99.90;;;;;;5040011;28;19913;-78
2022/01/20 09:32:56;;;;;;;;;;;2.40;99.90;;;;;;5049060;28;19973;-77
2022/01/20 09:35:22;;;;;;;;;;;2.30;1.00;;;;;;5045784;28;19932;-78
2022/01/20 09:37:50;;;;;;;;;;;2.30;80.40;;;;;;5039698;28;19948;-79
2022/01/20 09:40:16;;;;;;;;;;;2.30;1.00;;;;;;5042809;28;19925;-79
2022/01/20 09:42:43;;;;;;;;;;;2.40;99.90;;;;;;5047462;28;20380;-78
2022/01/20 09:45:09;;;;;;;;;;;2.40;1.00;;;;;;5046618;28;19933;-77
2022/01/20 09:47:36;;;;;;;;;;;2.40;1.00;;;;;;5047458;28;19925;-77
2022/01/20 09:50:03;;;;;;;;;;;2.40;1.00;;;;;;5048095;28;19936;-77
2022/01/20 09:52:29;;;;;;;;;;;2.40;1.00;;;;;;5046835;28;20396;-78
2022/01/20 09:54:57;;;;;;;;;;;2.40;1.00;;;;;;5038986;28;19964;-78
2022/01/20 09:57:24;;;;;;;;;;;2.40;99.90;;;;;;5039575;28;19972;-77
2022/01/20 09:59:52;;;;;;;;;;;2.40;39.50;;;;;;5035407;28;19987;-77
2022/01/20 10:02:19;;;;;;;8.85;2.58;;;3.30;1.00;;;;;;5037274;28;20429;-80
2022/01/20 10:04:46;;;;;;;14.98;3.13;;;3.40;99.90;;;;;;5037497;28;20715;-78
2022/01/20 10:07:15;;;;;;;8.70;3.42;;;3.30;99.90;;;;;;5041087;28;20666;-78
2022/01/20 10:09:45;;;;;;;9.13;3.65;;;2.80;1.00;;;;;;5041465;28;20203;-78
2022/01/20 10:12:15;;;;;;;12.55;3.72;;;2.70;1.00;;;;;;5040508;28;20359;-77
2022/01/20 10:14:43;;;;;;;10.63;3.30;;;2.60;1.00;;;;;;5035051;28;20203;-78
2022/01/20 10:17:20;;;;;;;9.10;2.90;;;2.70;1.00;;;;;;5034339;28;20747;-78
2022/01/20 10:19:50;;;;;;;14.50;3.85;;;2.70;99.90;;;;;;5034200;28;20650;-77
2022/01/20 10:22:21;;;;;;;8.48;4.38;;;2.70;99.90;;;;;;5035634;28;20270;-79
2022/01/20 10:24:58;;;;;;;11.68;3.67;;;2.80;1.00;;;;;;5036358;28;20208;-79
2022/01/20 10:27:26;;;;;;;10.52;2.72;;;2.80;99.90;;;;;;5036737;28;20642;-84
2022/01/20 10:29:57;;;;;;;14.93;4.07;;;2.70;1.00;;;;;;5036018;28;20697;-77
2022/01/20 10:32:24;;;;;;;8.68;3.40;;;2.70;99.90;;;;;;5034540;28;20219;-77
2022/01/20 10:35:02;;;;;;;10.55;3.40;;;2.70;99.90;;;;;;5034003;28;20234;-79
2022/01/20 10:37:29;;;;;;;11.70;4.07;;;2.70;99.90;;;;;;5034082;28;20215;-77
2022/01/20 10:40:07;;;;;;;10.50;3.03;;;2.80;1.00;;;;;;5034294;28;20211;-77
2022/01/20 10:42:40;;;;;;;10.38;2.85;;;2.80;1.00;;;;;;5034573;28;20227;-78
2022/01/20 10:45:08;;;;;;;11.82;3.40;;;2.70;1.00;;;;;;5034857;28;20246;-77
2022/01/20 10:47:38;;;;;;;11.52;3.53;;;2.70;1.00;;;;;;5040494;28;20203;-77
2022/01/20 10:50:10;;;;;;;11.27;4.78;;;2.70;1.00;;;;;;5035547;28;20192;-76
2022/01/20 10:52:40;;;;;;;10.80;3.63;;;2.70;1.00;;;;;;5033811;28;20224;-76
2022/01/20 10:55:18;;;;;;;14.77;3.35;;;2.80;1.00;;;;;;5033205;28;20210;-76
2022/01/20 10:57:46;;;;;;;10.50;2.65;;;2.90;1.00;;;;;;5035478;28;20188;-76
2022/01/20 11:00:16;;;;;;;12.63;2.75;;;2.60;93.00;;;;;;5035280;28;20242;-79
2022/01/20 11:02:43;;;;;;;17.65;4.43;;;2.90;99.90;;;;;;5033611;28;20601;-77
2022/01/20 11:05:10;;;;;;;9.52;3.88;;;3.40;22.50;;;;;;5034853;28;20227;-77
2022/01/20 11:07:39;;;;;;;11.75;3.47;;;2.90;99.90;;;;;;5035116;28;20214;-77
2022/01/20 11:10:07;;;;;;;7.82;2.58;;;2.80;1.00;;;;;;5033116;28;20306;-77
2022/01/20 11:12:35;;;;;;;7.93;2.40;;;2.80;99.90;;;;;;5037334;28;20326;-80
2022/01/20 11:15:07;;;;;;;9.30;3.05;;;2.80;1.00;;;;;;5043319;28;20210;-77
2022/01/20 11:17:35;;;;;;;7.57;2.10;;;2.80;1.00;;;;;;5047628;28;20191;-79
2022/01/20 11:20:06;;;;;;;8.82;3.10;;;2.80;1.00;;;;;;5045154;28;20212;-79
2022/01/20 11:22:33;;;;;;;11.75;3.85;;;2.80;1.00;;;;;;5042596;28;20235;-79
2022/01/20 11:25:02;;;;;;;8.07;2.83;;;2.80;99.90;;;;;;5037179;28;20219;-79
2022/01/20 11:27:37;;;;;;;9.85;2.13;;;2.80;99.90;;;;;;5034475;28;20200;-78
2022/01/20 11:30:16;;;;;;;8.43;2.40;;;2.90;99.90;;;;;;5033437;28;20210;-77
2022/01/20 11:32:45;;;;;;;9.27;3.50;;;2.80;99.90;;;;;;5033990;28;20255;-79
2022/01/20 11:35:13;;;;;;;14.15;3.78;;;2.80;1.00;;;;;;5034825;28;20330;-78
2022/01/20 11:37:42;;;;;;;13.18;5.85;;;2.80;99.90;;;;;;5038197;28;20701;-78
2022/01/20 11:40:13;;;;;;;10.52;3.20;;;2.90;99.90;;;;;;5038913;28;20637;-77
2022/01/20 11:42:40;;;;;;;13.88;3.42;;;2.90;99.90;;;;;;5036050;28;20262;-77
2022/01/20 11:45:29;;;;;;;9.55;4.10;;;3.00;99.90;;;;;;5043390;28;20627;-77
2022/01/20 11:47:56;;;;;;;8.95;3.13;;;3.00;99.90;;;;;;5046210;28;20215;-77
2022/01/20 11:50:23;;;;;;;7.35;3.15;;;3.00;99.90;;;;;;5049684;28;20214;-77
2022/01/20 11:52:50;;;;;;;7.30;3.20;;;3.10;99.90;;;;;;5049545;28;20599;-76
2022/01/20 11:55:19;;;;;;;12.73;2.72;;;3.20;1.00;;;;;;5039918;28;20235;-77
2022/01/20 11:57:46;;;;;;;7.72;3.67;;;3.20;99.90;;;;;;5038189;28;20210;-77
2022/01/20 12:00:24;;;;;;;11.82;3.83;;;3.30;1.00;;;;;;5036635;28;20586;-78
2022/01/20 12:02:51;;;;;;;8.02;2.60;;;3.30;99.90;;;;;;5038708;28;20227;-77
2022/01/20 12:05:20;;;;;;;5.18;2.25;;;3.40;99.90;;;;;;5038492;28;20694;-78
2022/01/20 12:07:47;;;;;;;8.02;2.67;;;3.40;99.90;;;;;;5044535;28;20208;-77
2022/01/20 12:10:17;;;;;;;4.78;2.55;;;3.30;99.90;;;;;;5040496;28;20257;-77
2022/01/20 12:12:44;;;;;;;5.65;2.33;;;3.30;99.90;;;;;;5038164;28;20698;-76
2022/01/20 12:15:14;;;;;;;5.40;2.67;;;3.30;99.90;;;;;;5036589;28;20231;-76
2022/01/20 12:17:49;;;;;;;6.90;2.75;;;3.20;99.90;;;;;;5036636;28;20204;-78
2022/01/20 12:20:16;;;;;;;14.45;2.55;;;3.30;99.90;;;;;;5037419;28;20191;-78
2022/01/20 12:22:43;;;;;;;11.07;3.17;;;3.30;99.90;;;;;;5040360;28;20235;-78
2022/01/20 12:25:17;;;;;;;3.92;2.13;;;3.20;91.10;;;;;;5047760;28;20230;-77
2022/01/20 12:27:43;;;;;;;4.00;2.25;;;3.10;99.90;;;;;;5036445;28;20227;-77
2022/01/20 12:30:20;;;;;;;10.18;2.70;;;3.10;1.00;;;;;;5035662;28;20211;-77
2022/01/20 12:33:01;;;;;;;6.68;2.92;;;3.10;5.30;;;;;;5035507;28;20227;-78
2022/01/20 12:35:36;;;;;;;6.97;2.55;;;3.20;31.90;;;;;;5035619;28;20234;-77
2022/01/20 12:38:14;;;;;;;7.88;2.33;;;3.30;99.90;;;;;;5035640;28;20206;-76
2022/01/20 12:40:41;;;;;;;5.50;2.70;;;3.20;99.90;;;;;;5035570;28;20187;-77
2022/01/20 12:43:07;;;;;;;4.13;2.25;;;3.30;25.20;;;;;;5036806;28;20259;-78
2022/01/20 12:48:19;;;;;;;8.55;2.47;;;3.20;99.90;;;;;;5035324;28;20273;-77
2022/01/20 12:50:57;;;;;;;7.75;2.33;;;3.00;32.70;;;;;;5036808;28;20231;-77
2022/01/20 12:53:37;;;;;;;9.60;2.55;;;3.10;44.90;;;;;;5036887;28;20319;-78
2022/01/20 12:56:05;;;;;;;3.72;2.10;;;3.00;31.60;;;;;;5039856;28;20243;-77
2022/01/20 12:58:32;;;;;;;16.75;3.65;;;3.00;1.00;;;;;;5045228;28;20207;-78
2022/01/20 13:01:00;;;;;;;9.13;3.42;;;3.00;1.00;;;;;;5045661;28;20591;-77
2022/01/20 13:03:36;;;;;;;8.45;3.53;;;2.80;96.50;;;;;;5041628;28;20258;-77
2022/01/20 13:06:03;;;;;;;6.35;2.55;;;2.80;98.80;;;;;;5036818;28;20631;-77
2022/01/20 13:08:33;;;;;;;6.35;2.60;;;2.80;1.00;;;;;;5037949;28;20398;-78
2022/01/20 13:11:05;;;;;;;6.70;3.28;;;2.80;99.90;;;;;;5037897;28;20203;-78
2022/01/20 13:13:31;;;;;;;9.40;2.90;;;2.90;99.90;;;;;;5037905;28;20281;-77
2022/01/20 13:15:58;;;;;;;4.88;3.28;;;2.80;89.60;;;;;;5037465;28;20742;-78
2022/01/20 13:18:24;;;;;;;9.82;3.10;;;2.90;99.90;;;;;;5037304;28;20299;-78
2022/01/20 13:20:59;;;;;;;7.32;4.25;;;2.80;99.90;;;;;;5037339;28;20211;-78
2022/01/20 13:26:08;;;;;;;4.95;2.83;;;2.90;99.90;;;;;;5022326;28;20219;-79
2022/01/20 13:28:34;;;;;;;14.38;2.75;;;2.90;99.90;;;;;;5036564;28;20204;-78
2022/01/20 13:31:13;;;;;;;9.73;4.43;;;2.90;1.00;;;;;;5035975;28;20214;-78
2022/01/20 13:33:40;;;;;;;15.25;3.88;;;2.90;99.90;;;;;;5034752;28;20223;-78
2022/01/20 13:36:08;;;;;;;22.05;7.63;;;2.70;99.90;;;;;;5035497;28;20329;-79
2022/01/20 13:38:38;;;;;;;3.85;2.88;;;2.90;1.00;;;;;;5036292;28;20274;-78
2022/01/20 13:41:08;;;;;;;8.35;3.22;;;3.00;1.00;;;;;;5039020;28;20207;-77
2022/01/20 13:46:30;;;;;;;6.07;3.75;;;2.90;99.90;;;;;;5038571;28;20684;-78
2022/01/20 13:49:07;;;;;;;7.13;3.03;;;2.80;99.90;;;;;;5035568;28;20219;-78
2022/01/20 13:51:35;;;;;;;7.78;2.67;;;3.00;99.90;;;;;;5034489;28;20214;-78
2022/01/20 13:54:02;;;;;;;4.50;2.60;;;2.80;99.90;;;;;;5036600;28;20595;-78
2022/01/20 13:56:29;;;;;;;10.73;3.33;;;2.80;1.00;;;;;;5038570;28;20250;-78
2022/01/20 13:59:03;;;;;;;12.77;3.13;;;2.80;1.00;;;;;;5036768;28;20238;-79
2022/01/20 14:01:30;;;;;;;10.80;3.65;;;3.00;99.90;;;;;;5042126;28;20698;-78
2022/01/20 14:03:57;;;;;;;7.05;3.03;;;2.80;99.90;;;;;;5041700;28;20204;-78
2022/01/20 14:06:23;;;;;;;4.97;2.63;;;2.70;99.90;;;;;;5038407;28;20219;-78
2022/01/20 14:08:52;;;;;;;7.30;2.90;;;2.60;99.90;;;;;;5038156;28;20243;-78
2022/01/20 14:11:19;;;;;;;10.02;3.20;;;2.70;99.90;;;;;;5035775;28;20211;-78
2022/01/20 14:13:46;;;;;;;8.75;3.45;;;2.70;99.90;;;;;;5034888;28;20223;-78
2022/01/20 14:16:13;;;;;;;6.40;3.38;;;2.60;99.90;;;;;;5045555;28;20195;-77
2022/01/20 14:18:44;;;;;;;10.20;2.85;;;2.70;99.90;;;;;;5051315;28;20199;-77
2022/01/20 14:21:13;;;;;;;19.02;3.13;;;2.60;99.90;;;;;;5048097;28;20577;-78
2022/01/20 14:23:40;;;;;;;8.95;2.50;;;2.60;1.00;;;;;;5041552;28;20227;-78
2022/01/20 14:26:12;;;;;;;9.88;3.22;;;2.50;99.90;;;;;;5041646;28;20251;-79
2022/01/20 14:28:38;;;;;;;7.35;3.00;;;2.50;1.00;;;;;;5036576;28;20242;-77
2022/01/20 14:31:05;;;;;;;6.47;2.70;;;2.60;99.90;;;;;;5037480;28;20206;-77
2022/01/20 14:33:32;;;;;;;9.07;2.75;;;2.60;1.00;;;;;;5037444;28;20281;-78
2022/01/20 14:35:59;;;;;;;6.78;2.58;;;2.60;99.90;;;;;;5036416;28;20239;-77
2022/01/20 14:38:28;;;;;;;5.80;2.65;;;2.50;99.90;;;;;;5034733;28;22524;-77
2022/01/20 14:40:56;;;;;;;4.57;2.30;;;2.60;99.90;;;;;;5035704;28;20246;-79
2022/01/20 14:43:24;;;;;;;6.95;2.25;;;2.50;1.00;;;;;;5039298;28;20718;-78
2022/01/20 14:45:52;;;;;;;2.30;1.67;;;2.20;6.20;;;;;;5037651;28;20258;-78
2022/01/20 14:48:19;;;;;;;9.60;4.00;;;1.90;1.00;;;;;;5035445;28;20562;-78
2022/01/20 14:50:46;;;;;;;8.38;2.90;;;1.80;99.90;;;;;;5035623;28;20281;-78
2022/01/20 14:53:14;;;;;;;17.25;4.07;;;1.80;98.00;;;;;;5034093;28;20606;-77
2022/01/20 14:55:40;;;;;;;8.32;3.35;;;1.90;1.00;;;;;;5034319;28;20593;-77
2022/01/20 14:58:07;;;;;;;13.27;3.63;;;1.90;1.00;;;;;;5033123;28;20361;-78
2022/01/20 15:00:36;;;;;;;5.25;2.92;;;2.00;99.90;;;;;;5034513;28;20231;-78